KUGN/UGN METAR and TAF weather

Enter ICAO airport designator
Station Type Date Time Source
KUGN METAR 2021/07/26 14:55 UTC NOAA

KUGN 261455Z 36003KT 10SM CLR 30/14 A3003 RMK AO2 SLP154 T03000144 50002


Station Type Date Time Source
KUGN Decoded METAR 2021/07/26 14:55 UTC NOAA

CHICAGO/WAUKEGAN REGIONAL, IL, United States (KUGN) 42-25N 087-52W
Jul 26, 2021 - 10:55 AM EDT / 2021.07.26 1455 UTC
Wind: from the N (360 degrees) at 3 MPH (3 KT):0
Visibility: 10 mile(s):0
Sky conditions: clear
Temperature: 86.0 F (30.0 C)
Dew Point: 57.9 F (14.4 C)
Relative Humidity: 38%
Pressure (altimeter): 30.03 in. Hg (1016 hPa)
Pressure tendency: 0.01 inches (0.2 hPa) higher than three hours ago
ob: KUGN 261455Z 36003KT 10SM CLR 30/14 A3003 RMK AO2 SLP154 T03000144 50002
cycle: 15

Station Type Date Time Source
KUGN TAF UTC NOAA

Error!

Example: see airport list